createdAt,value
2023-12-26T00:01:13.752Z,3.10
2023-12-26T00:03:41.196Z,2.30
2023-12-26T00:06:08.182Z,2.17
2023-12-26T00:08:35.479Z,2.25
2023-12-26T00:11:03.726Z,2.78
2023-12-26T00:13:30.597Z,2.22
2023-12-26T00:15:57.612Z,2.30
2023-12-26T00:18:24.592Z,2.08
2023-12-26T00:20:52.610Z,2.20
2023-12-26T00:23:20.228Z,2.28
2023-12-26T00:25:48.899Z,2.20
2023-12-26T00:28:17.405Z,2.38
2023-12-26T00:30:44.231Z,2.50
2023-12-26T00:33:11.210Z,2.67
2023-12-26T00:35:38.069Z,2.35
2023-12-26T00:38:04.987Z,1.92
2023-12-26T00:40:31.957Z,2.15
2023-12-26T00:42:58.775Z,2.42
2023-12-26T00:45:26.559Z,2.47
2023-12-26T00:47:55.313Z,3.00
2023-12-26T00:50:23.219Z,2.45
2023-12-26T00:52:50.075Z,2.20
2023-12-26T00:55:16.863Z,2.28
2023-12-26T00:57:43.738Z,2.80
2023-12-26T01:00:11.058Z,2.30
2023-12-26T01:02:38.132Z,2.05
2023-12-26T01:05:05.157Z,2.15
2023-12-26T01:07:32.075Z,2.78
2023-12-26T01:10:01.757Z,2.03
2023-12-26T01:12:29.310Z,2.47
2023-12-26T01:14:56.076Z,3.00
2023-12-26T01:17:22.958Z,2.00
2023-12-26T01:19:49.858Z,2.05
2023-12-26T01:22:17.791Z,2.50
2023-12-26T01:24:44.596Z,2.25
2023-12-26T01:27:11.516Z,2.72
2023-12-26T01:29:38.298Z,2.17
2023-12-26T01:32:05.438Z,2.17
2023-12-26T01:34:32.239Z,2.10
2023-12-26T01:36:58.960Z,2.92
2023-12-26T01:39:27.610Z,2.63
2023-12-26T01:41:54.577Z,2.72
2023-12-26T01:44:21.842Z,2.70
2023-12-26T01:46:49.113Z,1.65
2023-12-26T01:49:16.257Z,2.25
2023-12-26T01:51:44.917Z,2.63
2023-12-26T01:54:12.075Z,2.17
2023-12-26T01:56:38.987Z,2.25
2023-12-26T01:59:05.801Z,2.33
2023-12-26T02:01:32.817Z,2.20
2023-12-26T02:04:00.957Z,2.25
2023-12-26T02:06:31.177Z,2.30
2023-12-26T02:08:59.088Z,2.30
2023-12-26T02:11:25.953Z,2.50
2023-12-26T02:13:52.848Z,2.58
2023-12-26T02:16:22.903Z,1.92
2023-12-26T02:18:50.298Z,2.40
2023-12-26T02:21:17.192Z,2.15
2023-12-26T02:23:46.082Z,2.40
2023-12-26T02:26:13.703Z,2.33
2023-12-26T02:28:40.759Z,2.10
2023-12-26T02:31:10.197Z,1.70
2023-12-26T02:33:38.726Z,2.28
2023-12-26T02:36:06.342Z,2.53
2023-12-26T02:38:33.110Z,2.70
2023-12-26T02:40:59.850Z,2.08
2023-12-26T02:43:29.408Z,1.92
2023-12-26T02:45:56.146Z,1.90
2023-12-26T02:48:22.978Z,2.10
2023-12-26T02:50:49.812Z,1.63
2023-12-26T02:53:16.573Z,1.63
2023-12-26T02:55:43.327Z,2.63
2023-12-26T02:58:11.087Z,2.17
2023-12-26T03:00:37.887Z,2.53
2023-12-26T03:03:05.216Z,2.13
2023-12-26T03:05:32.116Z,1.90
2023-12-26T03:08:00.482Z,2.00
2023-12-26T03:10:27.188Z,2.45
2023-12-26T03:12:54.122Z,2.42
2023-12-26T03:15:20.996Z,1.95
2023-12-26T03:17:49.794Z,2.38
2023-12-26T03:20:16.768Z,2.75
2023-12-26T03:22:43.619Z,2.75
2023-12-26T03:25:10.316Z,1.80
2023-12-26T03:27:37.027Z,2.10
2023-12-26T03:30:04.200Z,2.65
2023-12-26T03:32:31.649Z,2.35
2023-12-26T03:34:58.409Z,2.85
2023-12-26T03:37:25.213Z,2.20
2023-12-26T03:39:51.989Z,2.67
2023-12-26T03:42:19.043Z,2.15
2023-12-26T03:44:48.324Z,2.88
2023-12-26T03:49:42.559Z,2.33
2023-12-26T03:52:10.680Z,2.65
2023-12-26T03:54:38.238Z,2.50
2023-12-26T03:57:05.831Z,2.40
2023-12-26T03:59:32.601Z,3.15
2023-12-26T04:01:59.868Z,2.85
2023-12-26T04:04:27.036Z,2.70
2023-12-26T04:06:53.976Z,2.53
2023-12-26T04:09:21.365Z,3.45
2023-12-26T04:11:48.265Z,2.92
2023-12-26T04:14:15.664Z,3.25
2023-12-26T04:16:43.467Z,2.65
2023-12-26T04:19:10.954Z,2.90
2023-12-26T04:21:38.084Z,3.22
2023-12-26T04:24:05.533Z,2.25
2023-12-26T04:26:32.455Z,3.08
2023-12-26T04:28:59.174Z,2.00
2023-12-26T04:31:27.046Z,2.88
2023-12-26T04:33:54.137Z,2.85
2023-12-26T04:36:21.461Z,3.38
2023-12-26T04:38:48.487Z,2.53
2023-12-26T04:41:15.310Z,3.10
2023-12-26T04:43:42.109Z,2.33
2023-12-26T04:46:09.028Z,2.63
2023-12-26T04:48:36.198Z,2.38
2023-12-26T04:51:03.696Z,2.80
2023-12-26T04:53:30.928Z,1.50
2023-12-26T04:55:57.805Z,2.45
2023-12-26T04:58:24.552Z,2.50
2023-12-26T05:00:51.363Z,1.83
2023-12-26T05:03:18.337Z,2.53
2023-12-26T05:05:45.368Z,2.28
2023-12-26T05:08:12.339Z,1.50
2023-12-26T05:10:39.092Z,1.88
2023-12-26T05:13:05.797Z,1.48
2023-12-26T05:15:32.766Z,1.77
2023-12-26T05:18:00.010Z,1.90
2023-12-26T05:20:31.203Z,1.85
2023-12-26T05:22:59.405Z,1.75
2023-12-26T05:25:27.645Z,2.15
2023-12-26T05:27:54.904Z,1.92
2023-12-26T05:30:21.862Z,2.30
2023-12-26T05:32:49.370Z,2.42
2023-12-26T05:35:18.701Z,2.33
2023-12-26T05:37:46.605Z,2.33
2023-12-26T05:40:13.621Z,1.77
2023-12-26T05:42:40.422Z,2.35
2023-12-26T05:45:07.627Z,2.10
2023-12-26T05:47:34.960Z,2.03
2023-12-26T05:50:02.472Z,2.70
2023-12-26T05:52:29.297Z,2.20
2023-12-26T05:54:56.555Z,2.10
2023-12-26T05:57:23.440Z,1.92
2023-12-26T05:59:50.559Z,2.03
2023-12-26T06:02:17.398Z,2.28
2023-12-26T06:04:44.093Z,3.25
2023-12-26T06:07:10.823Z,2.35
2023-12-26T06:09:37.627Z,2.85
2023-12-26T06:12:05.265Z,1.45
2023-12-26T06:14:33.169Z,2.95
2023-12-26T06:17:02.124Z,2.42
2023-12-26T06:19:29.175Z,1.40
2023-12-26T06:21:56.165Z,2.75
2023-12-26T06:24:22.942Z,1.75
2023-12-26T06:26:49.981Z,1.73
2023-12-26T06:29:16.702Z,1.60
2023-12-26T06:31:43.447Z,1.42
2023-12-26T06:34:10.393Z,1.33
2023-12-26T06:36:37.286Z,1.48
2023-12-26T06:39:04.805Z,1.63
2023-12-26T06:41:31.860Z,3.60
2023-12-26T06:43:58.682Z,3.65
2023-12-26T06:46:25.410Z,3.15
2023-12-26T06:48:52.729Z,2.30
2023-12-26T06:51:19.821Z,2.92
2023-12-26T06:53:46.631Z,2.13
2023-12-26T06:56:13.392Z,2.55
2023-12-26T06:58:41.240Z,2.72
2023-12-26T07:01:11.478Z,3.05
2023-12-26T07:03:38.364Z,2.10
2023-12-26T07:06:05.588Z,2.08
2023-12-26T07:08:32.389Z,2.70
2023-12-26T07:10:59.210Z,2.55
2023-12-26T07:13:26.026Z,2.58
2023-12-26T07:15:55.667Z,3.50
2023-12-26T07:20:49.546Z,3.70
2023-12-26T07:23:16.362Z,3.58
2023-12-26T07:25:44.074Z,3.95
2023-12-26T07:28:16.118Z,3.65
2023-12-26T07:30:43.352Z,4.78
2023-12-26T07:33:10.515Z,4.20
2023-12-26T07:35:38.908Z,4.80
2023-12-26T07:38:06.150Z,5.82
2023-12-26T07:40:33.500Z,5.30
2023-12-26T07:43:00.297Z,5.18
2023-12-26T07:45:28.430Z,4.00
2023-12-26T07:48:00.739Z,5.03
2023-12-26T07:50:28.294Z,4.60
2023-12-26T07:52:55.695Z,3.78
2023-12-26T07:55:23.018Z,3.78
2023-12-26T07:57:51.847Z,5.25
2023-12-26T08:00:18.781Z,4.40
2023-12-26T08:02:45.593Z,4.80
2023-12-26T08:05:12.972Z,5.05
2023-12-26T08:07:39.652Z,5.10
2023-12-26T08:10:06.707Z,5.95
2023-12-26T08:12:34.226Z,4.57
2023-12-26T08:15:01.104Z,3.60
2023-12-26T08:17:27.900Z,3.22
2023-12-26T08:19:54.734Z,3.03
2023-12-26T08:22:21.483Z,3.63
2023-12-26T08:24:49.019Z,5.20
2023-12-26T08:27:15.891Z,3.05
2023-12-26T08:29:42.745Z,3.25
2023-12-26T08:32:09.510Z,3.30
2023-12-26T08:34:36.407Z,5.15
2023-12-26T08:37:03.574Z,4.15
2023-12-26T08:39:30.371Z,4.32
2023-12-26T08:41:57.232Z,3.63
2023-12-26T08:44:24.056Z,4.13
2023-12-26T08:46:51.844Z,2.97
2023-12-26T08:49:18.753Z,3.30
2023-12-26T08:51:45.600Z,2.50
2023-12-26T08:54:13.239Z,2.60
2023-12-26T08:56:41.171Z,1.90
2023-12-26T08:59:08.929Z,2.58
2023-12-26T09:01:37.234Z,3.10
2023-12-26T09:04:12.484Z,2.72
2023-12-26T09:06:39.474Z,2.75
2023-12-26T09:09:06.429Z,2.17
2023-12-26T09:11:33.374Z,2.25
2023-12-26T09:14:00.091Z,2.33
2023-12-26T09:16:26.803Z,1.95
2023-12-26T09:18:53.587Z,2.10
2023-12-26T09:21:20.494Z,1.80
2023-12-26T09:23:47.312Z,2.50
2023-12-26T09:26:15.501Z,2.60
2023-12-26T09:28:43.541Z,2.35
2023-12-26T09:31:10.235Z,2.50
2023-12-26T09:33:37.211Z,2.00
2023-12-26T09:36:04.516Z,2.28
2023-12-26T09:38:31.247Z,2.63
2023-12-26T09:40:58.265Z,2.03
2023-12-26T09:43:25.072Z,1.38
2023-12-26T09:45:51.788Z,2.00
2023-12-26T09:48:18.834Z,2.75
2023-12-26T09:50:47.024Z,2.28
2023-12-26T09:53:18.569Z,1.98
2023-12-26T09:55:45.899Z,2.58
2023-12-26T09:58:12.941Z,3.00
2023-12-26T10:00:40.817Z,2.10
2023-12-26T10:03:08.101Z,1.48
2023-12-26T10:05:35.086Z,2.60
2023-12-26T10:08:01.893Z,2.60
2023-12-26T10:10:29.213Z,5.47
2023-12-26T10:12:56.497Z,2.53
2023-12-26T10:15:23.679Z,2.22
2023-12-26T10:17:52.586Z,2.35
2023-12-26T10:20:19.792Z,3.08
2023-12-26T10:22:46.583Z,2.33
2023-12-26T10:25:14.687Z,2.08
2023-12-26T10:27:42.126Z,2.20
2023-12-26T10:30:09.439Z,2.15
2023-12-26T10:32:36.670Z,2.13
2023-12-26T10:35:14.756Z,2.72
2023-12-26T10:37:41.847Z,2.28
2023-12-26T10:40:10.015Z,2.22
2023-12-26T10:42:38.471Z,2.65
2023-12-26T10:45:06.284Z,2.55
2023-12-26T10:47:34.241Z,2.05
2023-12-26T10:50:02.971Z,3.00
2023-12-26T10:52:31.403Z,2.83
2023-12-26T10:55:03.786Z,2.40
2023-12-26T10:57:34.335Z,3.50
2023-12-26T11:00:01.291Z,3.25
2023-12-26T11:02:28.378Z,2.28
2023-12-26T11:04:55.451Z,3.22
2023-12-26T11:07:23.088Z,2.83
2023-12-26T11:09:49.900Z,3.05
2023-12-26T11:12:16.708Z,3.25
2023-12-26T11:14:43.540Z,2.53
2023-12-26T11:17:11.656Z,2.55
2023-12-26T11:19:38.710Z,2.72
2023-12-26T11:22:05.672Z,2.13
2023-12-26T11:24:32.375Z,2.15
2023-12-26T11:26:59.364Z,2.42
2023-12-26T11:29:26.517Z,2.35
2023-12-26T11:31:53.656Z,2.58
2023-12-26T11:34:24.518Z,2.83
2023-12-26T11:36:54.155Z,2.70
2023-12-26T11:39:23.279Z,2.78
2023-12-26T11:41:50.641Z,2.45
2023-12-26T11:44:18.206Z,2.60
2023-12-26T11:46:45.336Z,2.90
2023-12-26T11:49:12.482Z,2.75
2023-12-26T11:51:39.561Z,3.03
2023-12-26T11:54:06.614Z,2.95
2023-12-26T11:56:33.582Z,2.80
2023-12-26T11:59:00.364Z,2.60
2023-12-26T12:01:33.425Z,2.88
2023-12-26T12:04:00.409Z,3.05
2023-12-26T12:06:30.047Z,2.95
2023-12-26T12:09:06.000Z,4.07
2023-12-26T12:11:34.018Z,3.20
2023-12-26T12:14:01.264Z,2.70
2023-12-26T12:16:28.498Z,2.58
2023-12-26T12:19:03.136Z,2.92
2023-12-26T12:21:39.205Z,2.50
2023-12-26T12:24:10.829Z,2.50
2023-12-26T12:27:06.194Z,2.63
2023-12-26T12:29:59.898Z,2.42
2023-12-26T12:32:34.870Z,2.75
2023-12-26T12:35:15.846Z,2.45
2023-12-26T12:37:43.642Z,3.53
2023-12-26T12:40:11.347Z,2.58
2023-12-26T12:42:38.174Z,2.13
2023-12-26T12:45:05.877Z,3.03
2023-12-26T12:47:33.698Z,2.78
2023-12-26T12:50:00.851Z,2.00
2023-12-26T12:52:27.777Z,2.65
2023-12-26T12:54:54.536Z,2.35
2023-12-26T12:57:21.371Z,1.95
2023-12-26T12:59:48.246Z,2.47
2023-12-26T13:02:15.390Z,2.47
2023-12-26T13:04:46.371Z,2.47
2023-12-26T13:07:14.001Z,4.57
2023-12-26T13:09:43.229Z,4.35
2023-12-26T13:12:11.445Z,2.70
2023-12-26T13:14:43.088Z,2.92
2023-12-26T13:17:30.998Z,2.78
2023-12-26T13:19:57.887Z,3.00
2023-12-26T13:22:24.773Z,2.78
2023-12-26T13:24:51.581Z,2.95
2023-12-26T13:27:24.904Z,2.30
2023-12-26T13:29:51.820Z,2.47
2023-12-26T13:32:18.687Z,2.92
2023-12-26T13:34:47.898Z,3.20
2023-12-26T13:37:15.536Z,3.05
2023-12-26T13:39:42.307Z,3.03
2023-12-26T13:42:09.063Z,3.13
2023-12-26T13:44:37.767Z,4.63
2023-12-26T13:47:05.930Z,3.60
2023-12-26T13:49:33.333Z,3.20
2023-12-26T13:52:00.239Z,2.80
2023-12-26T13:54:27.239Z,1.92
2023-12-26T13:56:54.055Z,2.38
2023-12-26T13:59:23.235Z,2.45
2023-12-26T14:01:50.123Z,5.40
2023-12-26T14:04:17.364Z,5.68
2023-12-26T14:06:44.382Z,4.43
2023-12-26T14:09:11.815Z,3.08
2023-12-26T14:11:39.071Z,3.05
2023-12-26T14:14:05.811Z,2.13
2023-12-26T14:16:32.689Z,3.13
2023-12-26T14:19:00.112Z,5.30
2023-12-26T14:21:27.551Z,7.90
2023-12-26T14:23:55.016Z,6.72
2023-12-26T14:26:22.104Z,9.35
2023-12-26T14:28:49.250Z,12.07
2023-12-26T14:31:16.523Z,13.20
2023-12-26T14:33:44.198Z,12.13
2023-12-26T14:36:12.143Z,9.45
2023-12-26T14:38:39.596Z,8.32
2023-12-26T14:41:06.788Z,7.28
2023-12-26T14:43:34.094Z,4.45
2023-12-26T14:46:01.039Z,3.70
2023-12-26T14:48:28.433Z,3.83
2023-12-26T14:50:55.362Z,3.28
2023-12-26T14:53:22.116Z,3.03
2023-12-26T14:55:49.117Z,3.63
2023-12-26T14:58:15.929Z,2.83
2023-12-26T15:00:42.726Z,3.47
2023-12-26T15:03:09.797Z,5.95
2023-12-26T15:05:36.604Z,4.93
2023-12-26T15:08:04.264Z,4.22
2023-12-26T15:10:32.462Z,4.00
2023-12-26T15:13:01.515Z,4.63
2023-12-26T15:15:28.403Z,3.60
2023-12-26T15:17:55.726Z,4.07
2023-12-26T15:20:22.629Z,3.30
2023-12-26T15:22:50.901Z,2.97
2023-12-26T15:25:17.728Z,3.05
2023-12-26T15:27:44.514Z,2.97
2023-12-26T15:30:12.336Z,3.88
2023-12-26T15:32:39.467Z,2.90
2023-12-26T15:35:08.964Z,2.47
2023-12-26T15:37:35.853Z,2.47
2023-12-26T15:40:02.727Z,2.53
2023-12-26T15:42:30.230Z,2.28
2023-12-26T15:44:57.090Z,2.72
2023-12-26T15:47:23.952Z,2.58
2023-12-26T15:49:50.910Z,2.40
2023-12-26T15:52:17.762Z,2.33
2023-12-26T15:54:44.635Z,2.13
2023-12-26T15:57:11.495Z,1.95
2023-12-26T15:59:38.248Z,2.38
2023-12-26T16:02:04.928Z,2.47
2023-12-26T16:04:31.947Z,2.45
2023-12-26T16:06:58.787Z,2.08
2023-12-26T16:09:29.943Z,1.55
2023-12-26T16:11:57.723Z,2.05
2023-12-26T16:14:27.598Z,1.65
2023-12-26T16:16:54.854Z,1.98
2023-12-26T16:19:21.801Z,1.98
2023-12-26T16:21:48.717Z,2.58
2023-12-26T16:24:15.508Z,3.13
2023-12-26T16:26:45.205Z,2.55
2023-12-26T16:31:40.556Z,2.03
2023-12-26T16:34:08.160Z,2.00
2023-12-26T16:36:35.341Z,2.67
2023-12-26T16:39:02.434Z,3.33
2023-12-26T16:41:33.519Z,7.38
2023-12-26T16:44:00.923Z,7.72
2023-12-26T16:46:28.474Z,11.27
2023-12-26T16:48:55.331Z,10.32
2023-12-26T16:51:22.591Z,11.55
2023-12-26T16:53:49.854Z,7.05
2023-12-26T16:56:16.760Z,5.45
2023-12-26T16:58:43.675Z,4.13
2023-12-26T17:01:11.160Z,3.38
2023-12-26T17:03:42.350Z,4.40
2023-12-26T17:06:09.652Z,6.13
2023-12-26T17:08:36.593Z,4.65
2023-12-26T17:11:09.932Z,4.10
2023-12-26T17:13:36.810Z,3.60
2023-12-26T17:16:03.685Z,4.60
2023-12-26T17:18:30.637Z,4.40
2023-12-26T17:20:57.523Z,4.45
2023-12-26T17:23:24.240Z,4.18
2023-12-26T17:25:50.999Z,3.97
2023-12-26T17:28:19.276Z,4.15
2023-12-26T17:30:46.543Z,4.03
2023-12-26T17:33:13.567Z,4.75
2023-12-26T17:35:40.381Z,7.45
2023-12-26T17:38:07.096Z,8.85
2023-12-26T17:40:33.780Z,8.30
2023-12-26T17:43:00.715Z,5.78
2023-12-26T17:45:30.039Z,4.28
2023-12-26T17:47:57.192Z,4.53
2023-12-26T17:50:24.157Z,3.22
2023-12-26T17:52:52.307Z,4.53
2023-12-26T17:55:20.665Z,4.95
2023-12-26T17:57:48.039Z,4.13
2023-12-26T18:00:15.624Z,3.80
2023-12-26T18:02:42.565Z,3.42
2023-12-26T18:05:09.563Z,2.97
2023-12-26T18:07:37.376Z,3.17
2023-12-26T18:10:04.691Z,3.22
2023-12-26T18:12:31.403Z,3.17
2023-12-26T18:14:58.177Z,3.08
2023-12-26T18:17:24.923Z,3.33
2023-12-26T18:19:55.677Z,2.65
2023-12-26T18:22:25.416Z,3.05
2023-12-26T18:24:52.198Z,2.95
2023-12-26T18:27:19.116Z,3.35
2023-12-26T18:29:46.223Z,3.33
2023-12-26T18:32:13.646Z,3.20
2023-12-26T18:34:43.628Z,3.63
2023-12-26T18:37:12.464Z,4.05
2023-12-26T18:39:39.367Z,4.90
2023-12-26T18:42:12.140Z,4.88
2023-12-26T18:44:39.480Z,4.03
2023-12-26T18:47:06.180Z,3.00
2023-12-26T18:49:33.240Z,4.57
2023-12-26T18:52:00.424Z,9.82
2023-12-26T18:54:27.093Z,10.50
2023-12-26T18:56:53.960Z,10.68
2023-12-26T18:59:21.083Z,9.30
2023-12-26T19:01:48.864Z,6.78
2023-12-26T19:04:15.799Z,5.35
2023-12-26T19:06:42.678Z,4.25
2023-12-26T19:09:12.103Z,5.38
2023-12-26T19:11:39.312Z,11.27
2023-12-26T19:14:07.239Z,18.02
2023-12-26T19:16:34.077Z,15.52
2023-12-26T19:19:01.069Z,12.18
2023-12-26T19:21:28.194Z,9.55
2023-12-26T19:23:55.045Z,8.85
2023-12-26T19:26:21.789Z,8.02
2023-12-26T19:28:48.511Z,6.25
2023-12-26T19:31:16.108Z,4.05
2023-12-26T19:33:43.072Z,4.03
2023-12-26T19:36:09.955Z,3.20
2023-12-26T19:38:39.855Z,3.67
2023-12-26T19:41:06.767Z,6.75
2023-12-26T19:43:33.753Z,4.97
2023-12-26T19:46:00.814Z,3.45
2023-12-26T19:48:28.039Z,4.97
2023-12-26T19:50:55.012Z,3.63
2023-12-26T19:53:21.780Z,3.88
2023-12-26T19:55:48.584Z,3.67
2023-12-26T19:58:15.428Z,3.80
2023-12-26T20:00:42.266Z,4.15
2023-12-26T20:03:15.906Z,5.10
2023-12-26T20:05:51.056Z,5.28
2023-12-26T20:08:18.036Z,5.32
2023-12-26T20:10:44.889Z,5.88
2023-12-26T20:13:11.725Z,4.25
2023-12-26T20:15:38.959Z,3.08
2023-12-26T20:18:06.206Z,3.13
2023-12-26T20:20:33.089Z,4.03
2023-12-26T20:23:00.030Z,3.88
2023-12-26T20:25:26.927Z,3.60
2023-12-26T20:27:54.688Z,3.65
2023-12-26T20:30:22.277Z,3.95
2023-12-26T20:32:49.292Z,5.60
2023-12-26T20:35:18.984Z,5.93
2023-12-26T20:37:47.635Z,3.97
2023-12-26T20:40:14.503Z,3.72
2023-12-26T20:42:42.452Z,2.85
2023-12-26T20:45:09.732Z,3.08
2023-12-26T20:47:36.875Z,2.25
2023-12-26T20:50:04.034Z,2.35
2023-12-26T20:52:30.802Z,2.75
2023-12-26T20:54:57.467Z,1.88
2023-12-26T20:57:24.729Z,2.15
2023-12-26T20:59:52.799Z,2.88
2023-12-26T21:02:19.553Z,2.83
2023-12-26T21:04:47.057Z,2.83
2023-12-26T21:07:14.095Z,2.00
2023-12-26T21:09:44.806Z,1.70
2023-12-26T21:12:11.819Z,1.80
2023-12-26T21:14:40.850Z,2.10
2023-12-26T21:17:08.684Z,2.13
2023-12-26T21:19:35.583Z,2.25
2023-12-26T21:22:02.365Z,2.97
2023-12-26T21:24:29.093Z,2.72
2023-12-26T21:26:55.824Z,2.28
2023-12-26T21:29:22.482Z,2.55
2023-12-26T21:31:49.661Z,2.83
2023-12-26T21:34:16.993Z,2.67
2023-12-26T21:36:43.777Z,2.40
2023-12-26T21:39:10.545Z,2.97
2023-12-26T21:41:41.525Z,2.35
2023-12-26T21:44:08.336Z,3.65
2023-12-26T21:46:35.034Z,4.70
2023-12-26T21:49:04.215Z,3.90
2023-12-26T21:53:59.810Z,2.75
2023-12-26T21:56:27.838Z,3.50
2023-12-26T21:58:54.917Z,3.95
2023-12-26T22:01:25.506Z,3.00
2023-12-26T22:03:52.390Z,3.38
2023-12-26T22:06:21.884Z,2.90
2023-12-26T22:08:50.407Z,2.08
2023-12-26T22:11:17.660Z,1.52
2023-12-26T22:13:44.303Z,2.83
2023-12-26T22:16:19.097Z,2.55
2023-12-26T22:18:46.307Z,2.13
2023-12-26T22:21:15.877Z,2.95
2023-12-26T22:23:45.808Z,2.70
2023-12-26T22:26:14.238Z,3.42
2023-12-26T22:28:41.240Z,4.43
2023-12-26T22:31:22.479Z,2.95
2023-12-26T22:33:50.593Z,2.70
2023-12-26T22:36:21.127Z,2.33
2023-12-26T22:38:48.673Z,2.63
2023-12-26T22:41:21.506Z,2.08
2023-12-26T22:43:48.777Z,2.45
2023-12-26T22:46:24.495Z,2.70
2023-12-26T22:48:52.436Z,2.83
2023-12-26T22:51:21.255Z,1.65
2023-12-26T22:53:48.032Z,2.30
2023-12-26T22:56:15.574Z,2.08
2023-12-26T22:58:42.811Z,2.15
2023-12-26T23:01:10.011Z,1.98
2023-12-26T23:03:38.675Z,4.07
2023-12-26T23:06:05.921Z,3.00
2023-12-26T23:08:32.723Z,2.60
2023-12-26T23:10:59.595Z,2.40
2023-12-26T23:13:26.374Z,2.97
2023-12-26T23:15:53.051Z,3.42
2023-12-26T23:18:19.976Z,1.83
2023-12-26T23:20:46.836Z,3.08
2023-12-26T23:23:13.601Z,3.15
2023-12-26T23:25:40.246Z,2.15
2023-12-26T23:28:07.911Z,2.47
2023-12-26T23:30:34.643Z,3.13
2023-12-26T23:33:01.640Z,4.60
2023-12-26T23:35:28.342Z,2.88
2023-12-26T23:37:55.318Z,1.77
2023-12-26T23:40:22.404Z,2.40
2023-12-26T23:42:49.313Z,2.25
2023-12-26T23:45:16.159Z,2.17
2023-12-26T23:47:45.443Z,2.05
2023-12-26T23:50:12.289Z,2.10
2023-12-26T23:52:42.258Z,2.17
2023-12-26T23:55:11.280Z,1.85
2023-12-26T23:57:38.197Z,1.52
